Time;durP1;ratioP1;P1;durP2;ratioP2;P2;SDS_P1;SDS_P2;PMS_P1;PMS_P2;Temp;Humidity;BMP_temperature;BMP_pressure;BME280_temperature;BME280_humidity;BME280_pressure;Samples;Min_cycle;Max_cycle;Signal;HPM_P1;HPM_P2
2023/08/14 00:00:45;;;;;;;4.60;2.30;;;;;;;-146.25;100.00;52149.22;2088270;28;35483;-64
2023/08/14 00:01:47;;;;;;;6.25;2.45;;;;;;;-146.25;100.00;52128.94;2088198;28;34099;-63
2023/08/14 00:02:48;;;;;;;3.50;1.77;;;;;;;-146.25;100.00;52149.22;2089089;28;20081;-63
2023/08/14 00:03:52;;;;;;;4.05;2.28;;;;;;;-146.25;100.00;52135.03;2088105;28;36559;-63
2023/08/14 00:04:54;;;;;;;2.80;1.90;;;;;;;-146.25;100.00;52157.34;2088555;28;26942;-63
2023/08/14 00:05:56;;;;;;;6.68;2.20;;;;;;;-146.25;100.00;52110.69;2088953;28;20172;-63
2023/08/14 00:07:00;;;;;;;5.65;2.50;;;;;;;-146.25;100.00;52151.25;2088232;28;36644;-63
2023/08/14 00:08:04;;;;;;;4.35;2.30;;;;;;;-146.25;100.00;52157.34;2087682;28;37300;-62
2023/08/14 00:09:06;;;;;;;5.82;2.50;;;;;;;-146.25;100.00;52165.44;2087647;28;33185;-63
2023/08/14 00:10:08;;;;;;;4.93;2.42;;;;;;;-146.25;100.00;52163.41;2087498;28;39391;-63
2023/08/14 00:11:13;;;;;;;6.32;2.47;;;;;;;-146.25;100.00;52153.28;2087811;28;33936;-62
2023/08/14 00:12:15;;;;;;;4.13;2.17;;;;;;;-146.25;100.00;52137.06;2088911;28;20037;-63
2023/08/14 00:13:20;;;;;;;4.93;2.58;;;;;;;-146.25;100.00;52137.06;2088289;28;36984;-63
2023/08/14 00:14:22;;;;;;;5.90;2.13;;;;;;;-146.25;100.00;52130.97;2088289;28;34651;-62
2023/08/14 00:15:24;;;;;;;3.58;2.20;;;;;;;-146.25;100.00;52110.69;2088220;28;37002;-63
2023/08/14 00:16:26;;;;;;;5.35;2.38;;;;;;;-146.25;100.00;52151.25;2088372;28;33999;-63
2023/08/14 00:17:28;;;;;;;4.53;2.35;;;;;;;-146.25;100.00;52139.09;2088001;28;35418;-63
2023/08/14 00:18:29;;;;;;;3.83;2.28;;;;;;;-146.25;100.00;52141.13;2088420;28;29200;-64
2023/08/14 00:19:34;;;;;;;7.35;2.20;;;;;;;-146.25;100.00;52171.53;2089119;28;20054;-63
2023/08/14 00:20:36;;;;;;;3.83;2.08;;;;;;;-146.25;100.00;52133.00;2087307;28;35897;-63
2023/08/14 00:21:38;;;;;;;3.45;2.38;;;;;;;-146.25;100.00;52159.34;2088975;28;30365;-63
2023/08/14 00:22:39;;;;;;;4.63;2.35;;;;;;;-146.25;100.00;52141.13;2088317;28;34072;-63
2023/08/14 00:23:41;;;;;;;5.70;2.83;;;;;;;-146.25;100.00;52120.84;2087657;28;38349;-63
2023/08/14 00:24:45;;;;;;;3.28;2.15;;;;;;;-146.25;100.00;52128.94;2087753;28;34361;-63
2023/08/14 00:25:47;;;;;;;5.32;2.30;;;;;;;-146.25;100.00;52173.56;2087234;28;33426;-63
2023/08/14 00:26:49;;;;;;;3.72;1.88;;;;;;;-146.25;100.00;52151.25;2088297;28;32021;-63
2023/08/14 00:27:54;;;;;;;5.05;2.05;;;;;;;-146.25;100.00;52133.00;2088709;28;20033;-63
2023/08/14 00:28:58;;;;;;;4.57;2.33;;;;;;;-146.25;100.00;52165.44;2088696;28;20073;-62
2023/08/14 00:30:01;;;;;;;5.25;2.30;;;;;;;-146.25;100.00;52149.22;2087995;28;27103;-63
2023/08/14 00:31:05;;;;;;;2.45;2.00;;;;;;;-146.25;100.00;52128.94;2087920;28;21277;-62
2023/08/14 00:32:07;;;;;;;5.32;2.40;;;;;;;-146.25;100.00;52143.13;2087336;28;29415;-63
2023/08/14 00:33:12;;;;;;;5.55;2.85;;;;;;;-146.25;100.00;52110.69;2088050;28;20380;-63
2023/08/14 00:34:14;;;;;;;6.30;2.85;;;;;;;-146.25;100.00;52128.94;2095735;28;27831;-63
2023/08/14 00:35:16;;;;;;;7.35;2.60;;;;;;;-146.25;100.00;52169.50;2096391;28;20171;-63
2023/08/14 00:36:18;;;;;;;4.43;2.35;;;;;;;-146.25;100.00;52133.00;2096497;28;20052;-63
2023/08/14 00:37:25;;;;;;;4.82;3.00;;;;;;;-146.25;100.00;52116.78;2088870;28;20207;-63
2023/08/14 00:38:26;;;;;;;5.47;2.70;;;;;;;-146.25;100.00;52120.84;2095736;28;24041;-62
2023/08/14 00:39:28;;;;;;;5.03;2.60;;;;;;;-146.25;100.00;52128.94;2095829;28;34475;-62
2023/08/14 00:40:30;;;;;;;6.05;2.65;;;;;;;-146.25;100.00;52110.69;2095919;28;24192;-62
2023/08/14 00:41:32;;;;;;;4.70;2.40;;;;;;;-146.25;100.00;52149.22;2087521;28;20135;-63
2023/08/14 00:42:33;;;;;;;4.05;2.40;;;;;;;-146.25;100.00;52114.75;2088267;28;20211;-64
2023/08/14 00:43:35;;;;;;;2.75;2.03;;;;;;;-146.25;100.00;52161.38;2087550;28;35216;-64
2023/08/14 00:44:38;;;;;;;5.07;2.63;;;;;;;-146.25;100.00;52120.84;2087757;28;20034;-64
2023/08/14 00:45:42;;;;;;;4.13;2.53;;;;;;;-146.25;100.00;52167.47;2095243;28;37701;-64
2023/08/14 00:46:47;;;;;;;4.28;2.55;;;;;;;-146.25;100.00;52106.66;2080112;28;20061;-64
2023/08/14 00:47:51;;;;;;;5.57;2.65;;;;;;;-146.25;100.00;52157.34;2087619;28;20088;-64
2023/08/14 00:48:53;;;;;;;4.47;2.70;;;;;;;-146.25;100.00;52151.25;2079630;28;24582;-64
2023/08/14 00:49:55;;;;;;;5.70;2.38;;;;;;;-146.25;100.00;52157.34;2079941;28;20108;-63
2023/08/14 00:50:58;;;;;;;7.05;2.72;;;;;;;-146.25;100.00;52149.22;2085435;28;20171;-64
2023/08/14 00:52:03;;;;;;;6.25;3.10;;;;;;;-146.25;100.00;52122.88;2079651;28;21456;-64
2023/08/14 00:53:04;;;;;;;4.13;2.30;;;;;;;-146.25;100.00;52173.56;2079775;28;20046;-64
2023/08/14 00:54:09;;;;;;;5.82;2.85;;;;;;;-146.25;100.00;52169.50;2087561;28;20045;-63
2023/08/14 00:55:18;;;;;;;4.30;2.42;;;;;;;-146.25;100.00;52165.44;2087425;28;28874;-63
2023/08/14 00:56:20;;;;;;;6.47;2.40;;;;;;;-146.25;100.00;52167.47;2087750;28;23360;-64
2023/08/14 00:57:22;;;;;;;4.13;2.30;;;;;;;-146.25;100.00;52143.13;2087665;28;20293;-64
2023/08/14 00:58:25;;;;;;;4.70;2.40;;;;;;;-146.25;100.00;52149.22;2079695;28;22848;-63
2023/08/14 00:59:29;;;;;;;4.78;2.50;;;;;;;-146.25;100.00;52143.13;2087817;28;25193;-64
2023/08/14 01:00:34;;;;;;;6.53;2.83;;;;;;;-146.25;100.00;52147.19;2095525;28;20072;-63
2023/08/14 01:01:38;;;;;;;5.22;2.92;;;;;;;-146.25;100.00;52149.22;2079416;28;20062;-64
2023/08/14 01:02:42;;;;;;;7.75;3.17;;;;;;;-146.25;100.00;52161.38;2080395;28;23970;-63
2023/08/14 01:03:44;;;;;;;4.55;2.75;;;;;;;-146.25;100.00;52157.34;2088289;28;20821;-64
2023/08/14 01:04:46;;;;;;;5.57;2.80;;;;;;;-146.25;100.00;52130.97;2087863;28;20945;-64
2023/08/14 01:05:48;;;;;;;3.53;2.97;;;;;;;-146.25;100.00;52161.38;2087534;28;22317;-64
2023/08/14 01:06:49;;;;;;;4.50;2.92;;;;;;;-146.25;100.00;52116.78;2087924;28;21017;-64
2023/08/14 01:07:51;;;;;;;6.18;3.03;;;;;;;-146.25;100.00;52143.13;2087410;28;29510;-64
2023/08/14 01:08:56;;;;;;;5.32;2.80;;;;;;;-146.25;100.00;52167.47;2086863;28;31886;-64
2023/08/14 01:10:02;;;;;;;5.45;3.17;;;;;;;-146.25;100.00;52133.00;2088104;28;20088;-64
2023/08/14 01:11:16;;;;;;;5.30;3.22;;;;;;;-146.25;100.00;52106.66;2087488;28;32759;-63
2023/08/14 01:12:43;;;;;;;6.68;2.38;;;;;;;-146.25;100.00;52124.91;2072687;28;25765;-63
2023/08/14 01:14:15;;;;;;;4.00;2.67;;;;;;;-146.25;100.00;52151.25;2082920;28;25216;-64
2023/08/14 01:15:33;;;;;;;3.10;2.60;;;;;;;-146.25;100.00;52149.22;2078581;28;20056;-64
2023/08/14 01:16:43;;;;;;;5.10;3.42;;;;;;;-146.25;100.00;52159.34;2078588;28;20038;-64
2023/08/14 01:17:55;;;;;;;3.63;2.55;;;;;;;-146.25;100.00;52139.09;2081426;28;34628;-64
2023/08/14 01:18:59;;;;;;;4.95;2.72;;;;;;;-146.25;100.00;52133.00;2088528;28;20057;-64
2023/08/14 01:20:04;;;;;;;5.15;2.78;;;;;;;-146.25;100.00;52171.53;2088353;28;20143;-63
2023/08/14 01:21:27;;;;;;;6.15;2.88;;;;;;;-146.25;100.00;52124.91;2093720;28;34419;-64
2023/08/14 01:22:52;;;;;;;6.53;2.80;;;;;;;-146.25;100.00;52133.00;2093132;28;20033;-64
2023/08/14 01:24:32;;;;;;;4.40;2.92;;;;;;;-146.25;100.00;52167.47;2078533;28;26141;-64
2023/08/14 01:25:37;;;;;;;3.25;2.70;;;;;;;-146.25;100.00;52169.50;2088126;28;30202;-64
2023/08/14 01:26:39;;;;;;;7.22;3.50;;;;;;;-146.25;100.00;52141.13;2095702;28;24021;-62
2023/08/14 01:27:42;;;;;;;4.63;3.38;;;;;;;-146.25;100.00;52141.13;2087744;28;20033;-63
2023/08/14 01:28:45;;;;;;;4.25;3.53;;;;;;;-146.25;100.00;52169.50;2079713;28;24109;-62
2023/08/14 01:29:57;;;;;;;4.25;3.30;;;;;;;-146.25;100.00;52133.00;2079412;28;27234;-64
2023/08/14 01:31:02;;;;;;;6.22;3.40;;;;;;;-146.25;100.00;52137.06;2087568;28;20550;-62
2023/08/14 01:32:04;;;;;;;7.13;4.30;;;;;;;-146.25;100.00;52124.91;2088386;28;20119;-61
2023/08/14 01:33:08;;;;;;;9.05;5.15;;;;;;;-146.25;100.00;52104.63;2087366;28;32135;-62
2023/08/14 01:34:11;;;;;;;7.28;4.10;;;;;;;-146.25;100.00;52203.97;2087691;28;20029;-62
2023/08/14 01:35:18;;;;;;;6.45;4.93;;;;;;;-146.25;100.00;52139.09;2079236;28;25771;-64
2023/08/14 01:36:28;;;;;;;7.80;5.13;;;;;;;-146.25;100.00;52167.47;2080437;28;28964;-62
2023/08/14 01:37:48;;;;;;;9.43;5.18;;;;;;;-146.25;100.00;52151.25;2089328;28;28835;-64
2023/08/14 01:39:09;;;;;;;7.13;4.85;;;;;;;-146.25;100.00;52116.78;2095191;28;27429;-63
2023/08/14 01:40:39;;;;;;;9.93;5.20;;;;;;;-146.25;100.00;52153.28;2096642;28;20048;-64
2023/08/14 01:41:56;;;;;;;5.20;4.13;;;;;;;-146.25;100.00;52177.59;2095567;28;25571;-64
2023/08/14 01:43:09;;;;;;;8.68;5.13;;;;;;;-146.25;100.00;52137.06;2095196;28;29673;-64
2023/08/14 01:44:18;;;;;;;7.18;4.22;;;;;;;-146.25;100.00;52177.59;2096233;28;20080;-64
2023/08/14 01:45:23;;;;;;;6.55;3.40;;;;;;;-146.25;100.00;52137.06;2095780;28;29213;-64
2023/08/14 01:46:31;;;;;;;6.53;3.35;;;;;;;-146.25;100.00;52120.84;2095716;28;27090;-62
2023/08/14 01:47:34;;;;;;;7.30;3.50;;;;;;;-146.25;100.00;52161.38;2088918;28;20087;-62
2023/08/14 01:48:38;;;;;;;6.50;3.78;;;;;;;-146.25;100.00;52149.22;2087685;28;31511;-63
2023/08/14 01:49:43;;;;;;;5.28;3.95;;;;;;;-146.25;100.00;52126.91;2087958;28;28664;-62
2023/08/14 01:50:47;;;;;;;5.55;3.70;;;;;;;-146.25;100.00;52133.00;2097143;28;20071;-62
2023/08/14 01:51:52;;;;;;;7.70;3.95;;;;;;;-146.25;100.00;52159.34;2097498;28;20917;-62
2023/08/14 01:52:55;;;;;;;5.45;3.53;;;;;;;-146.25;100.00;52157.34;2098312;28;25968;-63
2023/08/14 01:53:57;;;;;;;4.65;3.60;;;;;;;-146.25;100.00;52179.63;2096885;28;29641;-62
2023/08/14 01:55:00;;;;;;;7.45;3.70;;;;;;;-146.25;100.00;52137.06;2089351;28;20950;-62
2023/08/14 01:56:03;;;;;;;5.72;3.10;;;;;;;-146.25;100.00;52118.81;2097791;28;20044;-63
2023/08/14 01:57:05;;;;;;;5.32;3.50;;;;;;;-146.25;100.00;52118.81;2097299;28;20045;-62
2023/08/14 01:58:07;;;;;;;6.53;4.32;;;;;;;-146.25;100.00;52133.00;2088874;28;21189;-63
2023/08/14 01:59:09;;;;;;;7.55;4.63;;;;;;;-146.25;100.00;52167.47;2089206;28;20041;-63
2023/08/14 02:00:11;;;;;;;9.50;4.45;;;;;;;-146.25;100.00;52169.50;2087783;28;25608;-63
2023/08/14 02:01:13;;;;;;;7.47;6.10;;;;;;;-146.25;100.00;52151.25;2088029;28;42274;-63
2023/08/14 02:02:15;;;;;;;9.73;5.45;;;;;;;-146.25;100.00;52135.03;2088816;28;20076;-63
2023/08/14 02:03:17;;;;;;;9.77;6.22;;;;;;;-146.25;100.00;52133.00;2088374;28;33256;-63
2023/08/14 02:04:19;;;;;;;6.18;4.80;;;;;;;-146.25;100.00;52108.66;2080723;28;20175;-63
2023/08/14 02:05:21;;;;;;;9.43;4.80;;;;;;;-146.25;100.00;52141.13;2089126;28;20044;-62
2023/08/14 02:06:25;;;;;;;6.20;3.88;;;;;;;-146.25;100.00;52153.28;2089353;28;25600;-63
2023/08/14 02:07:26;;;;;;;8.35;4.32;;;;;;;-146.25;100.00;52161.38;2089013;28;28947;-63
2023/08/14 02:08:29;;;;;;;5.75;4.13;;;;;;;-146.25;100.00;52145.16;2088718;28;20688;-63
2023/08/14 02:09:32;;;;;;;6.22;3.80;;;;;;;-146.25;100.00;52169.50;2088928;28;22599;-63
2023/08/14 02:10:34;;;;;;;7.78;4.15;;;;;;;-146.25;100.00;52145.16;2088668;28;23939;-63
2023/08/14 02:11:36;;;;;;;5.90;4.45;;;;;;;-146.25;100.00;52102.59;2080745;28;20046;-63
2023/08/14 02:12:38;;;;;;;7.95;4.65;;;;;;;-146.25;100.00;52149.22;2080376;28;20164;-63
2023/08/14 02:13:42;;;;;;;8.32;5.20;;;;;;;-146.25;100.00;52157.34;2089020;28;20164;-63
2023/08/14 02:14:44;;;;;;;5.40;3.95;;;;;;;-146.25;100.00;52165.44;2088869;28;32546;-63
2023/08/14 02:15:46;;;;;;;4.80;4.07;;;;;;;-146.25;100.00;52141.13;2088821;28;31485;-64
2023/08/14 02:16:50;;;;;;;6.05;4.40;;;;;;;-146.25;100.00;52163.41;2089320;28;20040;-63
2023/08/14 02:17:52;;;;;;;10.38;4.95;;;;;;;-146.25;100.00;52153.28;2089168;28;29683;-64
2023/08/14 02:18:56;;;;;;;9.00;4.80;;;;;;;-146.25;100.00;52139.09;2089304;28;29062;-63
2023/08/14 02:19:58;;;;;;;7.10;5.60;;;;;;;-146.25;100.00;52173.56;2088361;28;26881;-63
2023/08/14 02:21:00;;;;;;;7.03;4.95;;;;;;;-146.25;100.00;52124.91;2094866;28;20914;-63
2023/08/14 02:22:02;;;;;;;7.05;5.10;;;;;;;-146.25;100.00;52169.50;2097383;28;20918;-64
2023/08/14 02:23:04;;;;;;;8.10;5.15;;;;;;;-146.25;100.00;52157.34;2088215;28;30335;-63
2023/08/14 02:24:07;;;;;;;11.40;5.32;;;;;;;-146.25;100.00;52193.81;2088257;28;28057;-63
2023/08/14 02:25:10;;;;;;;7.53;5.90;;;;;;;-146.25;100.00;52130.97;2089201;28;21891;-64
2023/08/14 02:26:11;;;;;;;9.80;6.45;;;;;;;-146.25;100.00;52165.44;2089100;28;27604;-63
2023/08/14 02:27:13;;;;;;;10.10;7.50;;;;;;;-146.25;100.00;52153.28;2089099;28;20908;-63
2023/08/14 02:28:15;;;;;;;7.10;5.60;;;;;;;-146.25;100.00;52124.91;2089179;28;29758;-63
2023/08/14 02:29:18;;;;;;;7.05;4.78;;;;;;;-146.25;100.00;52153.28;2088811;28;20530;-63
2023/08/14 02:30:20;;;;;;;5.82;4.22;;;;;;;-146.25;100.00;52137.06;2089133;28;20853;-63
2023/08/14 02:31:24;;;;;;;7.35;5.00;;;;;;;-146.25;100.00;52143.13;2088944;28;30208;-62
2023/08/14 02:32:26;;;;;;;6.85;4.93;;;;;;;-146.25;100.00;52151.25;2089364;28;20037;-63
2023/08/14 02:33:28;;;;;;;10.13;6.40;;;;;;;-146.25;100.00;52157.34;2089346;28;20092;-64
2023/08/14 02:34:43;;;;;;;6.97;5.28;;;;;;;-146.25;100.00;52165.44;2089191;28;29092;-64
2023/08/14 02:35:50;;;;;;;11.23;6.20;;;;;;;-146.25;100.00;52177.59;2089015;28;28575;-63
2023/08/14 02:36:52;;;;;;;7.68;6.20;;;;;;;-146.25;100.00;52181.66;2089231;28;24556;-63
2023/08/14 02:37:54;;;;;;;7.35;5.35;;;;;;;-146.25;100.00;52153.28;2088127;28;20050;-63
2023/08/14 02:38:56;;;;;;;8.88;6.38;;;;;;;-146.25;100.00;52147.19;2080666;28;27157;-64
2023/08/14 02:39:57;;;;;;;6.75;5.88;;;;;;;-146.25;100.00;52199.91;2087598;28;28447;-64
2023/08/14 02:41:03;;;;;;;8.38;4.72;;;;;;;-146.25;100.00;52141.13;2090034;28;20041;-64
2023/08/14 02:42:05;;;;;;;7.40;5.10;;;;;;;-146.25;100.00;52153.28;2089061;28;25456;-64
2023/08/14 02:43:07;;;;;;;7.20;4.60;;;;;;;-146.25;100.00;52120.84;2088015;28;25592;-63
2023/08/14 02:44:11;;;;;;;5.88;4.95;;;;;;;-146.25;100.00;52157.34;2088911;28;25896;-63
2023/08/14 02:45:13;;;;;;;7.30;5.20;;;;;;;-146.25;100.00;52177.59;2088897;28;20038;-63
2023/08/14 02:46:15;;;;;;;6.40;4.15;;;;;;;-146.25;100.00;52163.41;2088763;28;26481;-64
2023/08/14 02:47:17;;;;;;;7.10;5.20;;;;;;;-146.25;100.00;52122.88;2088632;28;33776;-64
2023/08/14 02:48:19;;;;;;;5.82;4.88;;;;;;;-146.25;100.00;52143.13;2089435;28;20115;-63
2023/08/14 02:49:23;;;;;;;6.90;5.00;;;;;;;-146.25;100.00;52153.28;2088637;28;20175;-63
2023/08/14 02:50:27;;;;;;;8.10;5.22;;;;;;;-146.25;100.00;52171.53;2088457;28;25868;-64
2023/08/14 02:51:29;;;;;;;9.45;5.45;;;;;;;-146.25;100.00;52137.06;2089538;28;20486;-63
2023/08/14 02:52:31;;;;;;;7.75;5.55;;;;;;;-146.25;100.00;52165.44;2089065;28;28480;-63
2023/08/14 02:53:34;;;;;;;6.97;5.82;;;;;;;-146.25;100.00;52203.97;2087860;28;28170;-63
2023/08/14 02:54:36;;;;;;;9.07;5.60;;;;;;;-146.25;100.00;52181.66;2088610;28;20061;-63
2023/08/14 02:55:38;;;;;;;7.30;5.30;;;;;;;-146.25;100.00;52133.00;2088565;28;20049;-64
2023/08/14 02:56:39;;;;;;;10.93;6.07;;;;;;;-146.25;100.00;52177.59;2088422;28;24292;-63
2023/08/14 02:57:41;;;;;;;10.15;5.35;;;;;;;-146.25;100.00;52177.59;2088341;28;31024;-63
2023/08/14 02:58:43;;;;;;;6.43;5.22;;;;;;;-146.25;100.00;52153.28;2089129;28;20229;-64
2023/08/14 02:59:45;;;;;;;6.70;5.45;;;;;;;-146.25;100.00;52183.69;2089185;28;26050;-64
2023/08/14 03:00:47;;;;;;;10.93;6.15;;;;;;;-146.25;100.00;52157.34;2088236;28;20080;-63
2023/08/14 03:01:49;;;;;;;6.68;5.97;;;;;;;-146.25;100.00;52167.47;2088037;28;20048;-64
2023/08/14 03:02:53;;;;;;;10.23;6.53;;;;;;;-146.25;100.00;52149.22;2088285;28;20042;-64
2023/08/14 03:03:55;;;;;;;10.95;6.80;;;;;;;-146.25;100.00;52175.56;2088326;28;25813;-64
2023/08/14 03:04:57;;;;;;;6.82;6.05;;;;;;;-146.25;100.00;52173.56;2096470;28;29477;-63
2023/08/14 03:05:59;;;;;;;10.13;7.05;;;;;;;-146.25;100.00;52185.72;2089582;28;20434;-64
2023/08/14 03:07:01;;;;;;;9.48;7.10;;;;;;;-146.25;100.00;52128.94;2088827;28;22776;-64
2023/08/14 03:08:08;;;;;;;8.45;5.40;;;;;;;-146.25;100.00;52165.44;2088762;28;20107;-63
2023/08/14 03:09:11;;;;;;;8.90;6.03;;;;;;;-146.25;100.00;52187.75;2088630;28;20088;-64
2023/08/14 03:10:13;;;;;;;10.02;6.72;;;;;;;-146.25;100.00;52133.00;2089519;28;20164;-64
2023/08/14 03:11:14;;;;;;;10.15;6.82;;;;;;;-146.25;100.00;52177.59;2087587;28;33507;-63
2023/08/14 03:12:16;;;;;;;7.43;6.72;;;;;;;-146.25;100.00;52153.28;2088995;28;29733;-63
2023/08/14 03:13:18;;;;;;;9.00;6.43;;;;;;;-146.25;100.00;52171.53;2089427;28;20034;-64
2023/08/14 03:14:20;;;;;;;11.02;7.75;;;;;;;-146.25;100.00;52197.88;2088302;28;21025;-63
2023/08/14 03:15:22;;;;;;;7.32;6.63;;;;;;;-146.25;100.00;52163.41;2079649;28;20965;-64
2023/08/14 03:16:24;;;;;;;6.90;5.80;;;;;;;-146.25;100.00;52185.72;2088028;28;34751;-63
2023/08/14 03:17:26;;;;;;;6.82;5.47;;;;;;;-146.25;100.00;52112.72;2088187;28;20786;-64
2023/08/14 03:18:27;;;;;;;9.10;7.07;;;;;;;-146.25;100.00;52171.53;2089059;28;20029;-63
2023/08/14 03:19:29;;;;;;;12.50;8.45;;;;;;;-146.25;100.00;52195.84;2087933;28;30113;-63
2023/08/14 03:20:33;;;;;;;14.90;10.30;;;;;;;-146.25;100.00;52206.00;2090498;28;25325;-63
2023/08/14 03:21:38;;;;;;;13.77;9.13;;;;;;;-146.25;100.00;52203.97;2097495;28;20891;-62
2023/08/14 03:22:41;;;;;;;9.45;7.97;;;;;;;-146.25;100.00;52165.44;2096958;28;20076;-63
2023/08/14 03:23:43;;;;;;;11.52;8.52;;;;;;;-146.25;100.00;52108.66;2096133;28;26188;-63
2023/08/14 03:24:45;;;;;;;14.32;8.20;;;;;;;-146.25;100.00;52181.66;2097934;28;25140;-63
2023/08/14 03:25:47;;;;;;;10.40;8.05;;;;;;;-146.25;100.00;52141.13;2097076;28;20041;-64
2023/08/14 03:26:49;;;;;;;12.10;8.30;;;;;;;-146.25;100.00;52157.34;2097322;28;20037;-63
2023/08/14 03:27:50;;;;;;;12.95;8.93;;;;;;;-146.25;100.00;52143.13;2097463;28;20041;-63
2023/08/14 03:28:52;;;;;;;11.10;7.32;;;;;;;-146.25;100.00;52137.06;2096829;28;27248;-63
2023/08/14 03:29:56;;;;;;;15.43;11.00;;;;;;;-146.25;100.00;52165.44;2088580;28;20037;-63
2023/08/14 03:30:58;;;;;;;14.02;9.50;;;;;;;-146.25;100.00;52149.22;2096725;28;24318;-64
2023/08/14 03:32:03;;;;;;;14.35;10.68;;;;;;;-146.25;100.00;52171.53;2096471;28;20135;-63
2023/08/14 03:33:05;;;;;;;18.48;10.90;;;;;;;-146.25;100.00;52137.06;2096966;28;20041;-63
2023/08/14 03:34:09;;;;;;;10.90;8.60;;;;;;;-146.25;100.00;52210.03;2096499;28;20048;-63
2023/08/14 03:35:11;;;;;;;14.57;9.20;;;;;;;-146.25;100.00;52195.84;2104998;28;20082;-63
2023/08/14 03:36:12;;;;;;;13.20;9.43;;;;;;;-146.25;100.00;52161.38;2096046;28;29643;-63
2023/08/14 03:37:14;;;;;;;12.05;8.80;;;;;;;-146.25;100.00;52181.66;2097143;28;20056;-63
2023/08/14 03:38:16;;;;;;;15.35;10.40;;;;;;;-146.25;100.00;52151.25;2096498;28;20241;-64
2023/08/14 03:39:18;;;;;;;15.60;10.65;;;;;;;-146.25;100.00;52133.00;2096839;28;20041;-64
2023/08/14 03:40:20;;;;;;;10.68;9.07;;;;;;;-146.25;100.00;52177.59;2104973;28;20029;-64
2023/08/14 03:41:22;;;;;;;13.70;11.52;;;;;;;-146.25;100.00;52153.28;2105244;28;21243;-64
2023/08/14 03:42:26;;;;;;;14.25;10.23;;;;;;;-146.25;100.00;52149.22;2096461;28;20187;-62
2023/08/14 03:43:27;;;;;;;15.02;10.38;;;;;;;-146.25;100.00;52179.63;2096429;28;28630;-63
2023/08/14 03:44:29;;;;;;;15.65;10.82;;;;;;;-146.25;100.00;52159.34;2096886;28;31023;-63
2023/08/14 03:45:36;;;;;;;10.50;9.20;;;;;;;-146.25;100.00;52151.25;2097087;28;24144;-63
2023/08/14 03:46:37;;;;;;;14.40;9.20;;;;;;;-146.25;100.00;52193.81;2095889;28;34490;-63
2023/08/14 03:47:39;;;;;;;10.57;9.25;;;;;;;-146.25;100.00;52167.47;2096711;28;27831;-64
2023/08/14 03:48:41;;;;;;;11.27;8.27;;;;;;;-146.25;100.00;52153.28;2095949;28;26906;-63
2023/08/14 03:49:43;;;;;;;10.07;8.50;;;;;;;-146.25;100.00;52118.81;2105287;28;20821;-63
2023/08/14 03:50:46;;;;;;;14.15;10.02;;;;;;;-146.25;100.00;52153.28;2096446;28;20045;-63
2023/08/14 03:51:48;;;;;;;11.52;8.25;;;;;;;-146.25;100.00;52197.88;2088135;28;23316;-63
2023/08/14 03:52:50;;;;;;;13.45;9.30;;;;;;;-146.25;100.00;52173.56;2087953;28;24246;-63
2023/08/14 03:53:52;;;;;;;11.15;7.07;;;;;;;-146.25;100.00;52165.44;2096682;28;20798;-62
2023/08/14 03:54:54;;;;;;;8.57;7.20;;;;;;;-146.25;100.00;52193.81;2095975;28;20201;-64
2023/08/14 03:55:56;;;;;;;10.73;7.60;;;;;;;-146.25;100.00;52137.06;2088518;28;20095;-65
2023/08/14 03:56:58;;;;;;;13.13;8.40;;;;;;;-146.25;100.00;52159.34;2096024;28;28382;-63
2023/08/14 03:57:59;;;;;;;9.43;7.43;;;;;;;-146.25;100.00;52179.63;2097548;28;26278;-64
2023/08/14 03:59:04;;;;;;;12.90;9.00;;;;;;;-146.25;100.00;52208.03;2096271;28;20033;-64
2023/08/14 04:00:08;;;;;;;13.15;9.15;;;;;;;-146.25;100.00;52226.25;2104869;28;20099;-63
2023/08/14 04:01:19;;;;;;;12.43;8.93;;;;;;;-146.25;100.00;52171.53;2103695;28;20044;-63
2023/08/14 04:02:21;;;;;;;13.18;9.93;;;;;;;-146.25;100.00;52195.84;2096872;28;27416;-63
2023/08/14 04:03:23;;;;;;;12.35;9.77;;;;;;;-146.25;100.00;52177.59;2096124;28;20184;-64
2023/08/14 04:04:25;;;;;;;15.88;9.98;;;;;;;-146.25;100.00;52163.41;2096361;28;31554;-66
2023/08/14 04:05:27;;;;;;;12.20;9.20;;;;;;;-146.25;100.00;52173.56;2095354;28;36177;-64
2023/08/14 04:06:29;;;;;;;15.50;9.82;;;;;;;-146.25;100.00;52199.91;2096168;28;31904;-65
2023/08/14 04:07:33;;;;;;;14.43;10.15;;;;;;;-146.25;100.00;52177.59;2104598;28;29535;-64
2023/08/14 04:08:35;;;;;;;17.60;12.45;;;;;;;-146.25;100.00;52179.63;2096624;28;20079;-64
2023/08/14 04:09:36;;;;;;;19.30;12.18;;;;;;;-146.25;100.00;52175.56;2096711;28;20195;-64
2023/08/14 04:10:38;;;;;;;16.63;12.57;;;;;;;-146.25;100.00;52175.56;2096740;28;22194;-64
2023/08/14 04:11:40;;;;;;;11.82;10.27;;;;;;;-146.25;100.00;52159.34;2087605;28;27936;-64
2023/08/14 04:12:44;;;;;;;16.45;10.50;;;;;;;-146.25;100.00;52137.06;2087777;28;26930;-64
2023/08/14 04:13:46;;;;;;;15.27;9.93;;;;;;;-146.25;100.00;52124.91;2094882;28;32644;-64
2023/08/14 04:14:49;;;;;;;14.75;10.63;;;;;;;-146.25;100.00;52171.53;2104531;28;25385;-63
2023/08/14 04:15:59;;;;;;;16.90;11.27;;;;;;;-146.25;100.00;52189.78;2095633;28;32833;-63
2023/08/14 04:17:05;;;;;;;12.80;10.23;;;;;;;-146.25;100.00;52203.97;2089352;28;20045;-63
2023/08/14 04:18:07;;;;;;;10.55;8.10;;;;;;;-146.25;100.00;52143.13;2088396;28;25318;-62
2023/08/14 04:19:18;;;;;;;12.27;7.13;;;;;;;-146.25;100.00;52169.50;2088384;28;20935;-64
2023/08/14 04:20:20;;;;;;;13.50;8.55;;;;;;;-146.25;100.00;52195.84;2089289;28;20033;-63
2023/08/14 04:21:21;;;;;;;12.90;9.60;;;;;;;-146.25;100.00;52193.81;2093182;28;28258;-62
2023/08/14 04:22:23;;;;;;;11.75;9.38;;;;;;;-146.25;100.00;52163.41;2094107;28;20052;-63
2023/08/14 04:23:26;;;;;;;8.45;7.13;;;;;;;-146.25;100.00;52177.59;2087406;28;36780;-64
2023/08/14 04:24:30;;;;;;;11.80;7.30;;;;;;;-146.25;100.00;52165.44;2095125;28;29248;-63
2023/08/14 04:25:32;;;;;;;11.32;7.35;;;;;;;-146.25;100.00;52177.59;2096784;28;25293;-64
2023/08/14 04:26:38;;;;;;;7.43;6.53;;;;;;;-146.25;100.00;52185.72;2096687;28;20192;-63
2023/08/14 04:27:41;;;;;;;8.68;7.22;;;;;;;-146.25;100.00;52169.50;2104949;28;20103;-63
2023/08/14 04:28:42;;;;;;;11.45;7.60;;;;;;;-146.25;100.00;52165.44;2096072;28;24615;-62
2023/08/14 04:29:44;;;;;;;8.05;7.00;;;;;;;-146.25;100.00;52210.03;2096156;28;27805;-63
2023/08/14 04:30:46;;;;;;;10.48;7.20;;;;;;;-146.25;100.00;52165.44;2096707;28;27818;-64
2023/08/14 04:31:48;;;;;;;8.35;6.95;;;;;;;-146.25;100.00;52197.88;2097271;28;30184;-65
2023/08/14 04:32:51;;;;;;;9.43;7.18;;;;;;;-146.25;100.00;52206.00;2104328;28;20055;-64
2023/08/14 04:33:53;;;;;;;11.65;7.88;;;;;;;-146.25;100.00;52163.41;2104909;28;20048;-62
2023/08/14 04:34:56;;;;;;;7.85;7.05;;;;;;;-146.25;100.00;52153.28;2095834;28;20856;-64
2023/08/14 04:35:59;;;;;;;8.27;6.50;;;;;;;-146.25;100.00;52161.38;2096201;28;20041;-62
2023/08/14 04:37:01;;;;;;;8.43;7.10;;;;;;;-146.25;100.00;52151.25;2095697;28;20025;-65
2023/08/14 04:38:04;;;;;;;10.27;7.47;;;;;;;-146.25;100.00;52165.44;2104384;28;20142;-65
2023/08/14 04:39:07;;;;;;;7.00;5.93;;;;;;;-146.25;100.00;52124.91;2095784;28;20048;-62
2023/08/14 04:40:12;;;;;;;8.85;7.25;;;;;;;-146.25;100.00;52214.09;2087945;28;20122;-63
2023/08/14 04:41:14;;;;;;;8.50;6.40;;;;;;;-146.25;100.00;52177.59;2087606;28;20176;-62
2023/08/14 04:42:16;;;;;;;8.45;6.10;;;;;;;-146.25;100.00;52181.66;2096560;28;20063;-62
2023/08/14 04:43:21;;;;;;;11.50;6.90;;;;;;;-146.25;100.00;52175.56;2096099;28;20084;-63
2023/08/14 04:44:26;;;;;;;6.40;5.28;;;;;;;-146.25;100.00;52181.66;2096321;28;20088;-64
2023/08/14 04:45:28;;;;;;;6.95;5.30;;;;;;;-146.25;100.00;52208.03;2096512;28;20045;-64
2023/08/14 04:46:38;;;;;;;5.68;4.30;;;;;;;-146.25;100.00;52214.09;2095962;28;20934;-64
2023/08/14 04:47:54;;;;;;;8.55;4.90;;;;;;;-146.25;100.00;52167.47;2096085;28;20885;-64
2023/08/14 04:48:59;;;;;;;5.00;4.18;;;;;;;-146.25;100.00;52161.38;2088204;28;20053;-64
2023/08/14 04:50:01;;;;;;;5.70;4.05;;;;;;;-146.25;100.00;52173.56;2088084;28;20184;-64